sensor_id;sensor_type;location;lat;lon;timestamp;P1;durP1;ratioP1;P2;durP2;ratioP2
60233;SDS011;49514;43.538;-5.708;2022-08-16T00:00:39;11.20;;;4.95;;
60233;SDS011;49514;43.538;-5.708;2022-08-16T00:03:09;14.55;;;5.30;;
60233;SDS011;49514;43.538;-5.708;2022-08-16T00:05:36;13.32;;;4.15;;
60233;SDS011;49514;43.538;-5.708;2022-08-16T00:08:03;20.65;;;5.50;;
60233;SDS011;49514;43.538;-5.708;2022-08-16T00:10:30;17.30;;;5.07;;
60233;SDS011;49514;43.538;-5.708;2022-08-16T00:12:59;17.58;;;5.05;;
60233;SDS011;49514;43.538;-5.708;2022-08-16T00:15:30;13.02;;;4.63;;
60233;SDS011;49514;43.538;-5.708;2022-08-16T00:18:01;10.75;;;4.97;;
60233;SDS011;49514;43.538;-5.708;2022-08-16T00:20:29;10.68;;;4.35;;
60233;SDS011;49514;43.538;-5.708;2022-08-16T00:22:56;10.13;;;4.40;;
60233;SDS011;49514;43.538;-5.708;2022-08-16T00:25:23;13.55;;;4.80;;
60233;SDS011;49514;43.538;-5.708;2022-08-16T00:27:51;11.40;;;4.28;;
60233;SDS011;49514;43.538;-5.708;2022-08-16T00:30:19;10.27;;;4.47;;
60233;SDS011;49514;43.538;-5.708;2022-08-16T00:32:48;10.20;;;4.73;;
60233;SDS011;49514;43.538;-5.708;2022-08-16T00:35:19;10.05;;;4.68;;
60233;SDS011;49514;43.538;-5.708;2022-08-16T00:37:48;12.60;;;4.90;;
60233;SDS011;49514;43.538;-5.708;2022-08-16T00:40:20;11.82;;;4.50;;
60233;SDS011;49514;43.538;-5.708;2022-08-16T00:42:49;9.70;;;4.13;;
60233;SDS011;49514;43.538;-5.708;2022-08-16T00:48:02;10.98;;;4.70;;
60233;SDS011;49514;43.538;-5.708;2022-08-16T00:50:32;12.07;;;4.78;;
60233;SDS011;49514;43.538;-5.708;2022-08-16T00:53:00;11.02;;;4.70;;
60233;SDS011;49514;43.538;-5.708;2022-08-16T00:55:27;11.65;;;5.22;;
60233;SDS011;49514;43.538;-5.708;2022-08-16T00:57:55;10.77;;;4.90;;
60233;SDS011;49514;43.538;-5.708;2022-08-16T01:00:23;11.10;;;4.30;;
60233;SDS011;49514;43.538;-5.708;2022-08-16T01:02:55;10.45;;;5.20;;
60233;SDS011;49514;43.538;-5.708;2022-08-16T01:05:22;10.30;;;4.93;;
60233;SDS011;49514;43.538;-5.708;2022-08-16T01:07:50;11.40;;;4.80;;
60233;SDS011;49514;43.538;-5.708;2022-08-16T01:10:19;10.57;;;5.28;;
60233;SDS011;49514;43.538;-5.708;2022-08-16T01:12:47;12.30;;;5.27;;
60233;SDS011;49514;43.538;-5.708;2022-08-16T01:15:14;12.50;;;5.30;;
60233;SDS011;49514;43.538;-5.708;2022-08-16T01:17:41;12.02;;;5.25;;
60233;SDS011;49514;43.538;-5.708;2022-08-16T01:20:11;10.27;;;4.75;;
60233;SDS011;49514;43.538;-5.708;2022-08-16T01:25:34;10.45;;;4.75;;
60233;SDS011;49514;43.538;-5.708;2022-08-16T01:28:08;10.53;;;5.03;;
60233;SDS011;49514;43.538;-5.708;2022-08-16T01:30:40;13.18;;;5.10;;
60233;SDS011;49514;43.538;-5.708;2022-08-16T01:33:09;17.53;;;6.60;;
60233;SDS011;49514;43.538;-5.708;2022-08-16T01:35:43;16.03;;;6.60;;
60233;SDS011;49514;43.538;-5.708;2022-08-16T01:38:35;17.70;;;7.23;;
60233;SDS011;49514;43.538;-5.708;2022-08-16T01:41:10;19.30;;;6.68;;
60233;SDS011;49514;43.538;-5.708;2022-08-16T01:43:40;23.88;;;6.95;;
60233;SDS011;49514;43.538;-5.708;2022-08-16T01:46:18;23.37;;;7.20;;
60233;SDS011;49514;43.538;-5.708;2022-08-16T01:48:58;18.42;;;6.30;;
60233;SDS011;49514;43.538;-5.708;2022-08-16T01:51:27;14.52;;;5.85;;
60233;SDS011;49514;43.538;-5.708;2022-08-16T01:53:56;17.27;;;5.70;;
60233;SDS011;49514;43.538;-5.708;2022-08-16T01:56:28;14.73;;;5.72;;
60233;SDS011;49514;43.538;-5.708;2022-08-16T01:58:56;17.30;;;6.28;;
60233;SDS011;49514;43.538;-5.708;2022-08-16T02:01:26;16.27;;;5.93;;
60233;SDS011;49514;43.538;-5.708;2022-08-16T02:03:53;16.10;;;6.47;;
60233;SDS011;49514;43.538;-5.708;2022-08-16T02:06:22;15.23;;;6.03;;
60233;SDS011;49514;43.538;-5.708;2022-08-16T02:08:49;12.90;;;6.22;;
60233;SDS011;49514;43.538;-5.708;2022-08-16T02:11:15;14.48;;;4.53;;
60233;SDS011;49514;43.538;-5.708;2022-08-16T02:13:42;11.50;;;3.95;;
60233;SDS011;49514;43.538;-5.708;2022-08-16T02:16:14;8.68;;;3.35;;
60233;SDS011;49514;43.538;-5.708;2022-08-16T02:18:42;8.88;;;3.03;;
60233;SDS011;49514;43.538;-5.708;2022-08-16T02:21:08;8.18;;;2.80;;
60233;SDS011;49514;43.538;-5.708;2022-08-16T02:23:37;13.52;;;2.85;;
60233;SDS011;49514;43.538;-5.708;2022-08-16T02:26:04;11.38;;;3.05;;
60233;SDS011;49514;43.538;-5.708;2022-08-16T02:28:31;9.50;;;2.70;;
60233;SDS011;49514;43.538;-5.708;2022-08-16T02:31:01;9.38;;;2.90;;
60233;SDS011;49514;43.538;-5.708;2022-08-16T02:33:30;12.15;;;3.15;;
60233;SDS011;49514;43.538;-5.708;2022-08-16T02:35:57;10.40;;;2.70;;
60233;SDS011;49514;43.538;-5.708;2022-08-16T02:38:27;12.20;;;2.97;;
60233;SDS011;49514;43.538;-5.708;2022-08-16T02:40:55;10.38;;;3.00;;
60233;SDS011;49514;43.538;-5.708;2022-08-16T02:43:23;10.73;;;3.10;;
60233;SDS011;49514;43.538;-5.708;2022-08-16T02:45:51;12.90;;;2.90;;
60233;SDS011;49514;43.538;-5.708;2022-08-16T02:48:18;12.23;;;3.08;;
60233;SDS011;49514;43.538;-5.708;2022-08-16T02:50:44;10.65;;;2.70;;
60233;SDS011;49514;43.538;-5.708;2022-08-16T02:53:11;9.17;;;2.83;;
60233;SDS011;49514;43.538;-5.708;2022-08-16T02:55:38;10.95;;;2.58;;
60233;SDS011;49514;43.538;-5.708;2022-08-16T02:58:05;13.13;;;2.92;;
60233;SDS011;49514;43.538;-5.708;2022-08-16T03:00:32;9.20;;;2.80;;
60233;SDS011;49514;43.538;-5.708;2022-08-16T03:02:59;11.00;;;2.78;;
60233;SDS011;49514;43.538;-5.708;2022-08-16T03:05:26;9.10;;;2.38;;
60233;SDS011;49514;43.538;-5.708;2022-08-16T03:07:53;10.50;;;2.60;;
60233;SDS011;49514;43.538;-5.708;2022-08-16T03:10:20;16.58;;;3.15;;
60233;SDS011;49514;43.538;-5.708;2022-08-16T03:12:47;10.75;;;3.22;;
60233;SDS011;49514;43.538;-5.708;2022-08-16T03:15:15;11.68;;;3.22;;
60233;SDS011;49514;43.538;-5.708;2022-08-16T03:17:43;15.20;;;3.72;;
60233;SDS011;49514;43.538;-5.708;2022-08-16T03:20:13;13.43;;;3.90;;
60233;SDS011;49514;43.538;-5.708;2022-08-16T03:22:43;8.63;;;3.13;;
60233;SDS011;49514;43.538;-5.708;2022-08-16T03:25:13;10.00;;;3.25;;
60233;SDS011;49514;43.538;-5.708;2022-08-16T03:27:50;10.90;;;3.20;;
60233;SDS011;49514;43.538;-5.708;2022-08-16T03:30:19;13.05;;;3.45;;
60233;SDS011;49514;43.538;-5.708;2022-08-16T03:32:52;14.48;;;3.40;;
60233;SDS011;49514;43.538;-5.708;2022-08-16T03:35:23;13.65;;;3.42;;
60233;SDS011;49514;43.538;-5.708;2022-08-16T03:37:54;14.40;;;3.77;;
60233;SDS011;49514;43.538;-5.708;2022-08-16T03:40:23;8.80;;;3.45;;
60233;SDS011;49514;43.538;-5.708;2022-08-16T03:42:50;12.20;;;3.60;;
60233;SDS011;49514;43.538;-5.708;2022-08-16T03:45:16;9.03;;;3.30;;
60233;SDS011;49514;43.538;-5.708;2022-08-16T03:47:44;9.07;;;3.73;;
60233;SDS011;49514;43.538;-5.708;2022-08-16T03:50:13;8.55;;;3.10;;
60233;SDS011;49514;43.538;-5.708;2022-08-16T03:52:40;11.67;;;3.10;;
60233;SDS011;49514;43.538;-5.708;2022-08-16T03:55:08;8.57;;;3.00;;
60233;SDS011;49514;43.538;-5.708;2022-08-16T03:57:35;6.40;;;3.10;;
60233;SDS011;49514;43.538;-5.708;2022-08-16T04:00:13;11.25;;;3.20;;
60233;SDS011;49514;43.538;-5.708;2022-08-16T04:02:44;8.10;;;2.60;;
60233;SDS011;49514;43.538;-5.708;2022-08-16T04:05:16;5.05;;;2.67;;
60233;SDS011;49514;43.538;-5.708;2022-08-16T04:07:44;6.90;;;2.90;;
60233;SDS011;49514;43.538;-5.708;2022-08-16T04:10:12;6.28;;;2.83;;
60233;SDS011;49514;43.538;-5.708;2022-08-16T04:12:40;5.80;;;2.70;;
60233;SDS011;49514;43.538;-5.708;2022-08-16T04:15:08;8.43;;;3.17;;
60233;SDS011;49514;43.538;-5.708;2022-08-16T04:17:41;7.38;;;2.88;;
60233;SDS011;49514;43.538;-5.708;2022-08-16T04:20:10;6.40;;;2.90;;
60233;SDS011;49514;43.538;-5.708;2022-08-16T04:22:39;5.78;;;2.53;;
60233;SDS011;49514;43.538;-5.708;2022-08-16T04:25:08;5.32;;;2.80;;
60233;SDS011;49514;43.538;-5.708;2022-08-16T04:27:37;7.00;;;3.00;;
60233;SDS011;49514;43.538;-5.708;2022-08-16T04:30:07;7.10;;;2.92;;
60233;SDS011;49514;43.538;-5.708;2022-08-16T04:32:40;8.07;;;2.70;;
60233;SDS011;49514;43.538;-5.708;2022-08-16T04:35:11;10.70;;;3.73;;
60233;SDS011;49514;43.538;-5.708;2022-08-16T04:37:42;14.60;;;4.15;;
60233;SDS011;49514;43.538;-5.708;2022-08-16T04:40:17;16.45;;;3.70;;
60233;SDS011;49514;43.538;-5.708;2022-08-16T04:42:45;15.67;;;4.23;;
60233;SDS011;49514;43.538;-5.708;2022-08-16T04:45:13;19.52;;;4.38;;
60233;SDS011;49514;43.538;-5.708;2022-08-16T04:47:40;19.92;;;4.53;;
60233;SDS011;49514;43.538;-5.708;2022-08-16T04:50:14;16.33;;;4.57;;
60233;SDS011;49514;43.538;-5.708;2022-08-16T04:52:57;19.50;;;5.35;;
60233;SDS011;49514;43.538;-5.708;2022-08-16T04:55:25;17.10;;;5.13;;
60233;SDS011;49514;43.538;-5.708;2022-08-16T04:57:54;13.40;;;4.95;;
60233;SDS011;49514;43.538;-5.708;2022-08-16T05:00:23;16.87;;;4.33;;
60233;SDS011;49514;43.538;-5.708;2022-08-16T05:03:05;11.85;;;3.97;;
60233;SDS011;49514;43.538;-5.708;2022-08-16T05:05:41;16.13;;;4.33;;
60233;SDS011;49514;43.538;-5.708;2022-08-16T05:08:09;13.07;;;4.40;;
60233;SDS011;49514;43.538;-5.708;2022-08-16T05:10:40;12.30;;;4.23;;
60233;SDS011;49514;43.538;-5.708;2022-08-16T05:13:07;14.02;;;4.20;;
60233;SDS011;49514;43.538;-5.708;2022-08-16T05:15:34;13.53;;;4.50;;
60233;SDS011;49514;43.538;-5.708;2022-08-16T05:18:02;9.82;;;4.57;;
60233;SDS011;49514;43.538;-5.708;2022-08-16T05:20:33;13.38;;;4.63;;
60233;SDS011;49514;43.538;-5.708;2022-08-16T05:23:01;11.23;;;4.47;;
60233;SDS011;49514;43.538;-5.708;2022-08-16T05:25:28;15.57;;;4.35;;
60233;SDS011;49514;43.538;-5.708;2022-08-16T05:27:56;12.43;;;4.22;;
60233;SDS011;49514;43.538;-5.708;2022-08-16T05:30:24;8.93;;;3.90;;
60233;SDS011;49514;43.538;-5.708;2022-08-16T05:32:51;12.02;;;4.03;;
60233;SDS011;49514;43.538;-5.708;2022-08-16T05:35:18;18.33;;;4.57;;
60233;SDS011;49514;43.538;-5.708;2022-08-16T05:38:01;19.00;;;4.53;;
60233;SDS011;49514;43.538;-5.708;2022-08-16T05:40:31;16.05;;;4.50;;
60233;SDS011;49514;43.538;-5.708;2022-08-16T05:42:58;6.95;;;3.58;;
60233;SDS011;49514;43.538;-5.708;2022-08-16T05:45:25;10.15;;;3.85;;
60233;SDS011;49514;43.538;-5.708;2022-08-16T05:47:55;7.82;;;3.33;;
60233;SDS011;49514;43.538;-5.708;2022-08-16T05:50:22;7.78;;;3.30;;
60233;SDS011;49514;43.538;-5.708;2022-08-16T05:52:50;11.10;;;3.65;;
60233;SDS011;49514;43.538;-5.708;2022-08-16T05:55:16;9.63;;;3.90;;
60233;SDS011;49514;43.538;-5.708;2022-08-16T05:57:44;8.23;;;3.88;;
60233;SDS011;49514;43.538;-5.708;2022-08-16T06:00:12;8.40;;;3.78;;
60233;SDS011;49514;43.538;-5.708;2022-08-16T06:02:42;10.25;;;3.72;;
60233;SDS011;49514;43.538;-5.708;2022-08-16T06:05:29;7.43;;;3.05;;
60233;SDS011;49514;43.538;-5.708;2022-08-16T06:07:56;10.10;;;3.70;;
60233;SDS011;49514;43.538;-5.708;2022-08-16T06:10:31;9.80;;;4.13;;
60233;SDS011;49514;43.538;-5.708;2022-08-16T06:12:58;6.80;;;3.53;;
60233;SDS011;49514;43.538;-5.708;2022-08-16T06:15:31;9.60;;;3.43;;
60233;SDS011;49514;43.538;-5.708;2022-08-16T06:17:58;7.78;;;3.92;;
60233;SDS011;49514;43.538;-5.708;2022-08-16T06:20:26;8.10;;;3.78;;
60233;SDS011;49514;43.538;-5.708;2022-08-16T06:22:57;10.75;;;3.80;;
60233;SDS011;49514;43.538;-5.708;2022-08-16T06:25:26;7.45;;;3.83;;
60233;SDS011;49514;43.538;-5.708;2022-08-16T06:27:55;9.15;;;3.75;;
60233;SDS011;49514;43.538;-5.708;2022-08-16T06:30:21;13.07;;;3.40;;
60233;SDS011;49514;43.538;-5.708;2022-08-16T06:32:49;8.85;;;3.45;;
60233;SDS011;49514;43.538;-5.708;2022-08-16T06:35:17;14.95;;;4.82;;
60233;SDS011;49514;43.538;-5.708;2022-08-16T06:37:47;11.13;;;4.30;;
60233;SDS011;49514;43.538;-5.708;2022-08-16T06:40:13;11.40;;;3.80;;
60233;SDS011;49514;43.538;-5.708;2022-08-16T06:42:45;9.98;;;4.03;;
60233;SDS011;49514;43.538;-5.708;2022-08-16T06:45:41;18.95;;;6.97;;
60233;SDS011;49514;43.538;-5.708;2022-08-16T06:48:17;15.40;;;4.72;;
60233;SDS011;49514;43.538;-5.708;2022-08-16T06:50:43;19.45;;;5.72;;
60233;SDS011;49514;43.538;-5.708;2022-08-16T06:53:13;15.23;;;3.60;;
60233;SDS011;49514;43.538;-5.708;2022-08-16T06:55:51;16.63;;;4.80;;
60233;SDS011;49514;43.538;-5.708;2022-08-16T06:58:34;19.48;;;3.40;;
60233;SDS011;49514;43.538;-5.708;2022-08-16T07:01:07;18.80;;;2.97;;
60233;SDS011;49514;43.538;-5.708;2022-08-16T07:03:34;10.18;;;2.60;;
60233;SDS011;49514;43.538;-5.708;2022-08-16T07:06:04;10.60;;;1.80;;
60233;SDS011;49514;43.538;-5.708;2022-08-16T07:08:40;3.20;;;0.70;;
60233;SDS011;49514;43.538;-5.708;2022-08-16T07:11:08;2.97;;;0.70;;
60233;SDS011;49514;43.538;-5.708;2022-08-16T07:13:35;2.20;;;0.63;;
60233;SDS011;49514;43.538;-5.708;2022-08-16T07:16:03;3.42;;;0.70;;
60233;SDS011;49514;43.538;-5.708;2022-08-16T07:18:31;2.28;;;0.70;;
60233;SDS011;49514;43.538;-5.708;2022-08-16T07:21:00;3.63;;;0.68;;
60233;SDS011;49514;43.538;-5.708;2022-08-16T07:23:28;2.05;;;0.52;;
60233;SDS011;49514;43.538;-5.708;2022-08-16T07:25:57;3.07;;;0.80;;
60233;SDS011;49514;43.538;-5.708;2022-08-16T07:28:24;2.93;;;1.10;;
60233;SDS011;49514;43.538;-5.708;2022-08-16T07:30:53;3.92;;;1.00;;
60233;SDS011;49514;43.538;-5.708;2022-08-16T07:33:41;3.20;;;0.90;;
60233;SDS011;49514;43.538;-5.708;2022-08-16T07:36:10;2.00;;;0.70;;
60233;SDS011;49514;43.538;-5.708;2022-08-16T07:38:43;3.93;;;0.70;;
60233;SDS011;49514;43.538;-5.708;2022-08-16T07:41:10;4.32;;;0.77;;
60233;SDS011;49514;43.538;-5.708;2022-08-16T07:43:42;3.80;;;1.00;;
60233;SDS011;49514;43.538;-5.708;2022-08-16T07:46:13;1.80;;;0.90;;
60233;SDS011;49514;43.538;-5.708;2022-08-16T07:48:40;1.30;;;0.60;;
60233;SDS011;49514;43.538;-5.708;2022-08-16T07:51:07;3.63;;;0.50;;
60233;SDS011;49514;43.538;-5.708;2022-08-16T07:53:34;2.30;;;0.70;;
60233;SDS011;49514;43.538;-5.708;2022-08-16T07:56:01;2.53;;;0.60;;
60233;SDS011;49514;43.538;-5.708;2022-08-16T07:58:34;3.78;;;1.48;;
60233;SDS011;49514;43.538;-5.708;2022-08-16T08:01:04;2.95;;;1.10;;
60233;SDS011;49514;43.538;-5.708;2022-08-16T08:03:32;4.55;;;1.20;;
60233;SDS011;49514;43.538;-5.708;2022-08-16T08:05:59;5.22;;;1.40;;
60233;SDS011;49514;43.538;-5.708;2022-08-16T08:08:26;5.85;;;1.58;;
60233;SDS011;49514;43.538;-5.708;2022-08-16T08:10:54;14.13;;;2.97;;
60233;SDS011;49514;43.538;-5.708;2022-08-16T08:13:21;15.18;;;3.00;;
60233;SDS011;49514;43.538;-5.708;2022-08-16T08:15:48;19.27;;;3.23;;
60233;SDS011;49514;43.538;-5.708;2022-08-16T08:18:15;14.07;;;2.20;;
60233;SDS011;49514;43.538;-5.708;2022-08-16T08:20:44;10.73;;;2.47;;
60233;SDS011;49514;43.538;-5.708;2022-08-16T08:23:12;10.48;;;1.80;;
60233;SDS011;49514;43.538;-5.708;2022-08-16T08:25:45;7.72;;;1.40;;
60233;SDS011;49514;43.538;-5.708;2022-08-16T08:28:14;14.20;;;2.25;;
60233;SDS011;49514;43.538;-5.708;2022-08-16T08:30:42;15.97;;;1.67;;
60233;SDS011;49514;43.538;-5.708;2022-08-16T08:33:10;8.23;;;1.10;;
60233;SDS011;49514;43.538;-5.708;2022-08-16T08:35:40;3.42;;;0.80;;
60233;SDS011;49514;43.538;-5.708;2022-08-16T08:38:09;4.20;;;0.70;;
60233;SDS011;49514;43.538;-5.708;2022-08-16T08:40:41;2.72;;;1.48;;
60233;SDS011;49514;43.538;-5.708;2022-08-16T08:43:08;1.73;;;0.50;;
60233;SDS011;49514;43.538;-5.708;2022-08-16T08:45:39;1.42;;;0.30;;
60233;SDS011;49514;43.538;-5.708;2022-08-16T08:48:06;3.00;;;0.47;;
60233;SDS011;49514;43.538;-5.708;2022-08-16T08:50:35;1.17;;;0.37;;
60233;SDS011;49514;43.538;-5.708;2022-08-16T08:53:03;11.50;;;0.50;;
60233;SDS011;49514;43.538;-5.708;2022-08-16T08:55:31;2.57;;;0.50;;
60233;SDS011;49514;43.538;-5.708;2022-08-16T08:57:59;3.38;;;0.50;;
60233;SDS011;49514;43.538;-5.708;2022-08-16T09:00:44;2.55;;;0.52;;
60233;SDS011;49514;43.538;-5.708;2022-08-16T09:03:11;1.60;;;0.30;;
60233;SDS011;49514;43.538;-5.708;2022-08-16T09:05:40;4.20;;;0.60;;
60233;SDS011;49514;43.538;-5.708;2022-08-16T09:08:09;8.68;;;1.00;;
60233;SDS011;49514;43.538;-5.708;2022-08-16T09:10:59;3.60;;;0.60;;
60233;SDS011;49514;43.538;-5.708;2022-08-16T09:13:26;2.05;;;0.47;;
60233;SDS011;49514;43.538;-5.708;2022-08-16T09:15:54;2.63;;;0.60;;
60233;SDS011;49514;43.538;-5.708;2022-08-16T09:18:23;1.42;;;0.38;;
60233;SDS011;49514;43.538;-5.708;2022-08-16T09:20:50;2.33;;;0.40;;
60233;SDS011;49514;43.538;-5.708;2022-08-16T09:23:18;3.70;;;0.50;;
60233;SDS011;49514;43.538;-5.708;2022-08-16T09:25:46;2.60;;;0.90;;
60233;SDS011;49514;43.538;-5.708;2022-08-16T09:28:14;5.10;;;0.68;;
60233;SDS011;49514;43.538;-5.708;2022-08-16T09:30:52;8.20;;;1.40;;
60233;SDS011;49514;43.538;-5.708;2022-08-16T09:33:19;3.72;;;0.60;;
60233;SDS011;49514;43.538;-5.708;2022-08-16T09:35:47;4.20;;;0.50;;
60233;SDS011;49514;43.538;-5.708;2022-08-16T09:38:14;10.33;;;1.10;;
60233;SDS011;49514;43.538;-5.708;2022-08-16T09:40:43;10.30;;;1.10;;
60233;SDS011;49514;43.538;-5.708;2022-08-16T09:43:12;8.30;;;0.80;;
60233;SDS011;49514;43.538;-5.708;2022-08-16T09:45:41;9.90;;;1.02;;
60233;SDS011;49514;43.538;-5.708;2022-08-16T09:48:08;11.35;;;1.13;;
60233;SDS011;49514;43.538;-5.708;2022-08-16T09:50:37;12.05;;;1.10;;
60233;SDS011;49514;43.538;-5.708;2022-08-16T09:53:07;11.38;;;2.13;;
60233;SDS011;49514;43.538;-5.708;2022-08-16T09:55:38;22.02;;;2.88;;
60233;SDS011;49514;43.538;-5.708;2022-08-16T09:58:06;12.57;;;1.53;;
60233;SDS011;49514;43.538;-5.708;2022-08-16T10:00:33;19.58;;;2.10;;
60233;SDS011;49514;43.538;-5.708;2022-08-16T10:03:00;10.10;;;1.10;;
60233;SDS011;49514;43.538;-5.708;2022-08-16T10:05:27;19.92;;;1.80;;
60233;SDS011;49514;43.538;-5.708;2022-08-16T10:07:54;7.63;;;1.00;;
60233;SDS011;49514;43.538;-5.708;2022-08-16T10:10:21;35.72;;;3.42;;
60233;SDS011;49514;43.538;-5.708;2022-08-16T10:12:49;12.15;;;1.70;;
60233;SDS011;49514;43.538;-5.708;2022-08-16T10:15:35;1.70;;;0.40;;
60233;SDS011;49514;43.538;-5.708;2022-08-16T10:18:03;1.95;;;0.20;;
60233;SDS011;49514;43.538;-5.708;2022-08-16T10:20:35;8.45;;;0.75;;
60233;SDS011;49514;43.538;-5.708;2022-08-16T10:23:06;42.97;;;2.80;;
60233;SDS011;49514;43.538;-5.708;2022-08-16T10:25:38;18.40;;;2.00;;
60233;SDS011;49514;43.538;-5.708;2022-08-16T10:28:06;5.68;;;0.60;;
60233;SDS011;49514;43.538;-5.708;2022-08-16T10:30:34;4.63;;;0.52;;
60233;SDS011;49514;43.538;-5.708;2022-08-16T10:33:03;3.83;;;0.50;;
60233;SDS011;49514;43.538;-5.708;2022-08-16T10:35:30;3.50;;;0.40;;
60233;SDS011;49514;43.538;-5.708;2022-08-16T10:37:57;8.02;;;0.93;;
60233;SDS011;49514;43.538;-5.708;2022-08-16T10:40:24;2.90;;;0.57;;
60233;SDS011;49514;43.538;-5.708;2022-08-16T10:42:51;9.20;;;1.40;;
60233;SDS011;49514;43.538;-5.708;2022-08-16T10:45:18;18.20;;;2.20;;
60233;SDS011;49514;43.538;-5.708;2022-08-16T10:47:45;22.63;;;2.30;;
60233;SDS011;49514;43.538;-5.708;2022-08-16T10:50:12;13.55;;;1.50;;
60233;SDS011;49514;43.538;-5.708;2022-08-16T10:52:39;34.63;;;3.33;;
60233;SDS011;49514;43.538;-5.708;2022-08-16T10:55:06;17.65;;;1.48;;
60233;SDS011;49514;43.538;-5.708;2022-08-16T10:57:37;21.42;;;2.00;;
60233;SDS011;49514;43.538;-5.708;2022-08-16T11:00:06;8.80;;;1.17;;
60233;SDS011;49514;43.538;-5.708;2022-08-16T11:02:37;8.07;;;0.90;;
60233;SDS011;49514;43.538;-5.708;2022-08-16T11:05:05;11.73;;;1.65;;
60233;SDS011;49514;43.538;-5.708;2022-08-16T11:07:38;37.13;;;2.35;;
60233;SDS011;49514;43.538;-5.708;2022-08-16T11:10:08;28.23;;;3.22;;
60233;SDS011;49514;43.538;-5.708;2022-08-16T11:12:37;26.33;;;2.63;;
60233;SDS011;49514;43.538;-5.708;2022-08-16T11:15:04;16.27;;;1.90;;
60233;SDS011;49514;43.538;-5.708;2022-08-16T11:17:31;23.60;;;3.03;;
60233;SDS011;49514;43.538;-5.708;2022-08-16T11:19:58;15.35;;;1.77;;
60233;SDS011;49514;43.538;-5.708;2022-08-16T11:22:25;5.85;;;0.80;;
60233;SDS011;49514;43.538;-5.708;2022-08-16T11:24:52;7.32;;;0.90;;
60233;SDS011;49514;43.538;-5.708;2022-08-16T11:27:20;13.63;;;1.42;;
60233;SDS011;49514;43.538;-5.708;2022-08-16T11:29:48;7.55;;;1.10;;
60233;SDS011;49514;43.538;-5.708;2022-08-16T11:32:17;12.07;;;1.83;;
60233;SDS011;49514;43.538;-5.708;2022-08-16T11:34:43;14.77;;;1.50;;
60233;SDS011;49514;43.538;-5.708;2022-08-16T11:37:10;8.73;;;1.25;;
60233;SDS011;49514;43.538;-5.708;2022-08-16T11:39:36;5.10;;;1.10;;
60233;SDS011;49514;43.538;-5.708;2022-08-16T11:42:03;32.42;;;2.55;;
60233;SDS011;49514;43.538;-5.708;2022-08-16T11:44:30;17.95;;;1.73;;
60233;SDS011;49514;43.538;-5.708;2022-08-16T11:46:57;15.20;;;1.70;;
60233;SDS011;49514;43.538;-5.708;2022-08-16T11:49:24;21.30;;;1.90;;
60233;SDS011;49514;43.538;-5.708;2022-08-16T11:51:51;29.30;;;3.28;;
60233;SDS011;49514;43.538;-5.708;2022-08-16T11:54:18;29.20;;;2.40;;
60233;SDS011;49514;43.538;-5.708;2022-08-16T11:56:44;29.70;;;2.97;;
60233;SDS011;49514;43.538;-5.708;2022-08-16T11:59:11;16.27;;;1.80;;
60233;SDS011;49514;43.538;-5.708;2022-08-16T12:01:38;30.20;;;2.50;;
60233;SDS011;49514;43.538;-5.708;2022-08-16T12:04:05;6.55;;;1.10;;
60233;SDS011;49514;43.538;-5.708;2022-08-16T12:06:32;12.63;;;1.70;;
60233;SDS011;49514;43.538;-5.708;2022-08-16T12:08:59;29.20;;;2.72;;
60233;SDS011;49514;43.538;-5.708;2022-08-16T12:11:26;35.33;;;2.60;;
60233;SDS011;49514;43.538;-5.708;2022-08-16T12:13:53;62.42;;;4.65;;
60233;SDS011;49514;43.538;-5.708;2022-08-16T12:16:20;48.58;;;4.30;;
60233;SDS011;49514;43.538;-5.708;2022-08-16T12:18:47;44.10;;;4.70;;
60233;SDS011;49514;43.538;-5.708;2022-08-16T12:21:15;20.83;;;2.38;;
60233;SDS011;49514;43.538;-5.708;2022-08-16T12:23:42;28.80;;;3.17;;
60233;SDS011;49514;43.538;-5.708;2022-08-16T12:26:08;31.63;;;3.05;;
60233;SDS011;49514;43.538;-5.708;2022-08-16T12:28:35;2.90;;;0.43;;
60233;SDS011;49514;43.538;-5.708;2022-08-16T12:31:02;4.10;;;0.50;;
60233;SDS011;49514;43.538;-5.708;2022-08-16T12:33:29;3.65;;;0.60;;
60233;SDS011;49514;43.538;-5.708;2022-08-16T12:35:57;4.88;;;1.27;;
60233;SDS011;49514;43.538;-5.708;2022-08-16T12:38:24;3.33;;;0.60;;
60233;SDS011;49514;43.538;-5.708;2022-08-16T12:40:51;2.87;;;0.40;;
60233;SDS011;49514;43.538;-5.708;2022-08-16T12:43:18;4.80;;;0.60;;
60233;SDS011;49514;43.538;-5.708;2022-08-16T12:45:49;1.77;;;0.50;;
60233;SDS011;49514;43.538;-5.708;2022-08-16T12:48:19;5.13;;;0.50;;
60233;SDS011;49514;43.538;-5.708;2022-08-16T12:51:08;2.55;;;0.50;;
60233;SDS011;49514;43.538;-5.708;2022-08-16T12:53:37;2.50;;;0.60;;
60233;SDS011;49514;43.538;-5.708;2022-08-16T12:56:04;2.60;;;0.50;;
60233;SDS011;49514;43.538;-5.708;2022-08-16T12:58:32;1.92;;;0.40;;
60233;SDS011;49514;43.538;-5.708;2022-08-16T13:00:59;8.57;;;1.10;;
60233;SDS011;49514;43.538;-5.708;2022-08-16T13:03:27;11.98;;;2.00;;
60233;SDS011;49514;43.538;-5.708;2022-08-16T13:05:53;13.68;;;2.00;;
60233;SDS011;49514;43.538;-5.708;2022-08-16T13:08:21;2.45;;;0.40;;
60233;SDS011;49514;43.538;-5.708;2022-08-16T13:10:49;2.75;;;0.50;;
60233;SDS011;49514;43.538;-5.708;2022-08-16T13:13:20;3.22;;;0.45;;
60233;SDS011;49514;43.538;-5.708;2022-08-16T13:15:53;4.57;;;0.60;;
60233;SDS011;49514;43.538;-5.708;2022-08-16T13:18:22;9.13;;;0.82;;
60233;SDS011;49514;43.538;-5.708;2022-08-16T13:20:50;11.17;;;1.20;;
60233;SDS011;49514;43.538;-5.708;2022-08-16T13:23:17;9.10;;;0.80;;
60233;SDS011;49514;43.538;-5.708;2022-08-16T13:25:46;5.10;;;0.60;;
60233;SDS011;49514;43.538;-5.708;2022-08-16T13:28:15;12.20;;;1.10;;
60233;SDS011;49514;43.538;-5.708;2022-08-16T13:30:49;4.75;;;0.70;;
60233;SDS011;49514;43.538;-5.708;2022-08-16T13:33:17;3.22;;;0.52;;
60233;SDS011;49514;43.538;-5.708;2022-08-16T13:35:47;2.85;;;0.63;;
60233;SDS011;49514;43.538;-5.708;2022-08-16T13:38:18;3.47;;;0.60;;
60233;SDS011;49514;43.538;-5.708;2022-08-16T13:40:45;2.47;;;0.57;;
60233;SDS011;49514;43.538;-5.708;2022-08-16T13:43:12;1.95;;;0.50;;
60233;SDS011;49514;43.538;-5.708;2022-08-16T13:45:39;2.25;;;0.35;;
60233;SDS011;49514;43.538;-5.708;2022-08-16T13:48:06;3.05;;;0.50;;
60233;SDS011;49514;43.538;-5.708;2022-08-16T13:50:33;1.88;;;0.40;;
60233;SDS011;49514;43.538;-5.708;2022-08-16T13:53:00;2.67;;;0.55;;
60233;SDS011;49514;43.538;-5.708;2022-08-16T13:55:28;4.40;;;0.50;;
60233;SDS011;49514;43.538;-5.708;2022-08-16T13:57:55;2.78;;;1.05;;
60233;SDS011;49514;43.538;-5.708;2022-08-16T14:00:21;4.68;;;1.10;;
60233;SDS011;49514;43.538;-5.708;2022-08-16T14:02:48;3.63;;;1.00;;
60233;SDS011;49514;43.538;-5.708;2022-08-16T14:05:15;4.22;;;1.23;;
60233;SDS011;49514;43.538;-5.708;2022-08-16T14:07:42;2.58;;;0.70;;
60233;SDS011;49514;43.538;-5.708;2022-08-16T14:10:10;3.92;;;0.80;;
60233;SDS011;49514;43.538;-5.708;2022-08-16T14:12:38;6.50;;;0.90;;
60233;SDS011;49514;43.538;-5.708;2022-08-16T14:15:07;6.47;;;0.90;;
60233;SDS011;49514;43.538;-5.708;2022-08-16T14:17:36;4.90;;;1.10;;
60233;SDS011;49514;43.538;-5.708;2022-08-16T14:20:03;4.07;;;1.10;;
60233;SDS011;49514;43.538;-5.708;2022-08-16T14:22:32;6.90;;;1.40;;
60233;SDS011;49514;43.538;-5.708;2022-08-16T14:25:06;6.47;;;1.35;;
60233;SDS011;49514;43.538;-5.708;2022-08-16T14:27:35;6.57;;;1.40;;
60233;SDS011;49514;43.538;-5.708;2022-08-16T14:30:04;8.02;;;1.60;;
60233;SDS011;49514;43.538;-5.708;2022-08-16T14:32:32;8.82;;;1.40;;
60233;SDS011;49514;43.538;-5.708;2022-08-16T14:35:00;21.07;;;3.00;;
60233;SDS011;49514;43.538;-5.708;2022-08-16T14:37:30;9.18;;;1.90;;
60233;SDS011;49514;43.538;-5.708;2022-08-16T14:39:57;10.10;;;2.03;;
60233;SDS011;49514;43.538;-5.708;2022-08-16T14:42:24;9.43;;;2.00;;
60233;SDS011;49514;43.538;-5.708;2022-08-16T14:44:51;10.05;;;1.83;;